TimeAST,TemperatureF,Dew PointF,Humidity,Sea Level PressureIn,VisibilityMPH,Wind Direction,Wind SpeedMPH,Gust SpeedMPH,PrecipitationIn,Events,Conditions,WindDirDegrees,DateUTC
12:00 AM,84.2,57.2,40,29.71,-9999.0,Variable,4.6,-,N/A,,Clear,0,2013-05-19 21:00:00
12:30 AM,84.2,57.2,40,29.71,-9999.0,West,5.8,-,N/A,,Clear,260,2013-05-19 21:30:00
1:00 AM,84.2,59.0,42,29.71,-9999.0,WSW,6.9,-,N/A,,Clear,250,2013-05-19 22:00:00
1:30 AM,84.2,59.0,42,29.71,-9999.0,WSW,5.8,-,N/A,,Clear,250,2013-05-19 22:30:00
2:00 AM,82.4,60.8,48,29.71,-9999.0,WSW,6.9,-,N/A,,Clear,250,2013-05-19 23:00:00
3:00 AM,83,59,34,29.71,9,WSW,6.9,,,,,250,2013-05-20 00:00:00
3:00 AM,82.4,59.0,45,29.71,-9999.0,WSW,6.9,-,N/A,,Clear,250,2013-05-20 00:00:00
4:00 AM,82.4,59.0,45,29.71,-9999.0,WSW,5.8,-,N/A,,Clear,250,2013-05-20 01:00:00
4:30 AM,82.4,59.0,45,29.71,-9999.0,WSW,6.9,-,N/A,,Clear,250,2013-05-20 01:30:00
5:00 AM,82.4,59.0,45,29.71,-9999.0,West,4.6,-,N/A,,Clear,260,2013-05-20 02:00:00
5:30 AM,82.4,59.0,45,29.71,-9999.0,West,4.6,-,N/A,,Clear,270,2013-05-20 02:30:00
6:00 AM,84.2,59.0,42,29.74,-9999.0,West,3.5,-,N/A,,Clear,260,2013-05-20 03:00:00
6:30 AM,86.0,57.2,37,29.74,-9999.0,West,4.6,-,N/A,,Clear,280,2013-05-20 03:30:00
7:00 AM,87.8,53.6,31,29.74,-9999.0,NW,5.8,-,N/A,,Clear,310,2013-05-20 04:00:00
7:30 AM,91.4,51.8,26,29.74,-9999.0,NW,9.2,-,N/A,,Clear,320,2013-05-20 04:30:00
8:00 AM,93.2,51.8,24,29.77,-9999.0,NW,9.2,-,N/A,,Clear,310,2013-05-20 05:00:00
8:30 AM,93.2,51.8,24,29.77,-9999.0,NW,11.5,-,N/A,,Clear,320,2013-05-20 05:30:00
9:00 AM,94,53,16,29.78,6,NW,11.5,,,,,310,2013-05-20 06:00:00
9:00 AM,95.0,53.6,25,29.77,-9999.0,NW,5.8,-,N/A,,Clear,310,2013-05-20 06:00:00
9:30 AM,96.8,53.6,23,29.77,-9999.0,NNW,10.4,-,N/A,,Clear,330,2013-05-20 06:30:00
10:00 AM,96.8,51.8,22,29.77,-9999.0,NNW,11.5,-,N/A,,Clear,330,2013-05-20 07:00:00
10:30 AM,98.6,50.0,19,29.74,-9999.0,North,13.8,-,N/A,,Clear,360,2013-05-20 07:30:00
11:00 AM,98.6,51.8,21,29.74,-9999.0,North,15.0,-,N/A,,Clear,360,2013-05-20 08:00:00
11:30 AM,98.6,50.0,19,29.74,-9999.0,NNE,16.1,-,N/A,,Clear,20,2013-05-20 08:30:00
12:00 PM,98.6,60.8,29,29.74,-9999.0,North,16.1,-,N/A,,Clear,10,2013-05-20 09:00:00
12:30 PM,96.8,51.8,22,29.74,-9999.0,NNE,13.8,-,N/A,,Clear,20,2013-05-20 09:30:00
1:00 PM,96.8,50.0,20,29.71,-9999.0,NNE,16.1,-,N/A,,Clear,20,2013-05-20 10:00:00
1:30 PM,98.6,50.0,19,29.71,-9999.0,NNE,16.1,-,N/A,,Clear,20,2013-05-20 10:30:00
2:00 PM,96.8,51.8,22,29.71,-9999.0,North,12.7,-,N/A,,Clear,10,2013-05-20 11:00:00
2:30 PM,96.8,50.0,20,29.71,5.0,North,13.8,-,N/A,,Unknown,10,2013-05-20 11:30:00
3:00 PM,97,49,12,29.70,5,North,15.0,,,,Widespread Dust,10,2013-05-20 12:00:00
3:00 PM,96.8,50.0,20,29.68,5.0,North,15.0,-,N/A,,Unknown,10,2013-05-20 12:00:00
3:30 PM,96.8,50.0,20,29.68,4.3,NNE,11.5,-,N/A,,Unknown,20,2013-05-20 12:30:00
4:00 PM,95.0,55.4,26,29.68,4.3,NNE,9.2,-,N/A,,Unknown,20,2013-05-20 13:00:00
4:30 PM,93.2,59.0,32,29.68,3.7,NNE,6.9,-,N/A,,Unknown,20,2013-05-20 13:30:00
5:00 PM,91.4,60.8,36,29.68,3.7,NE,6.9,-,N/A,,Unknown,50,2013-05-20 14:00:00
5:30 PM,91.4,60.8,36,29.68,3.7,NNE,5.8,-,N/A,,Unknown,20,2013-05-20 14:30:00
6:00 PM,89.6,64.4,43,29.68,3.7,North,3.5,-,N/A,,Unknown,360,2013-05-20 15:00:00
7:00 PM,87.8,62.6,43,29.71,3.7,North,5.8,-,N/A,,Unknown,10,2013-05-20 16:00:00
8:00 PM,87.8,64.4,46,29.71,4.3,Variable,2.3,-,N/A,,Unknown,0,2013-05-20 17:00:00
9:00 PM,87.8,62.6,43,29.71,4.3,East,3.5,-,N/A,,Unknown,80,2013-05-20 18:00:00
9:30 PM,86.0,64.4,48,29.71,4.3,Variable,1.2,-,N/A,,Unknown,0,2013-05-20 18:30:00
10:00 PM,86.0,64.4,48,29.71,4.3,South,3.5,-,N/A,,Unknown,190,2013-05-20 19:00:00
10:30 PM,86.0,66.2,51,29.71,4.3,SW,5.8,-,N/A,,Unknown,220,2013-05-20 19:30:00
11:00 PM,86.0,64.4,48,29.71,4.3,SSW,4.6,-,N/A,,Unknown,210,2013-05-20 20:00:00
11:30 PM,86.0,62.6,45,29.71,4.3,SSW,6.9,-,N/A,,Unknown,210,2013-05-20 20:30:00